createdAt,value
2019-03-05T00:00:35.565Z,3.99
2019-03-05T00:03:06.904Z,4.05
2019-03-05T00:05:38.481Z,3.94
2019-03-05T00:08:09.907Z,4.01
2019-03-05T00:10:41.564Z,4.08
2019-03-05T00:13:13.114Z,4.05
2019-03-05T00:15:45.337Z,4.07
2019-03-05T00:18:16.836Z,4.08
2019-03-05T00:20:48.387Z,4.17
2019-03-05T00:23:51.384Z,4.10
2019-03-05T00:26:26.317Z,4.19
2019-03-05T00:29:09.952Z,4.25
2019-03-05T00:31:43.968Z,4.17
2019-03-05T00:34:39.889Z,4.36
2019-03-05T00:37:20.454Z,4.27
2019-03-05T00:39:55.282Z,4.24
2019-03-05T00:42:58.828Z,4.33
2019-03-05T00:45:54.503Z,4.33
2019-03-05T00:48:59.541Z,4.34
2019-03-05T00:51:39.944Z,4.34
2019-03-05T00:54:32.361Z,4.36
2019-03-05T00:57:25.151Z,4.40
2019-03-05T01:00:12.239Z,4.54
2019-03-05T01:02:58.987Z,4.48
2019-03-05T01:05:39.747Z,4.57
2019-03-05T01:08:11.349Z,4.43
2019-03-05T01:10:43.211Z,4.51
2019-03-05T01:13:14.465Z,4.62
2019-03-05T01:15:46.532Z,4.55
2019-03-05T01:18:17.974Z,4.66
2019-03-05T01:20:49.433Z,4.75
2019-03-05T01:23:20.689Z,4.60
2019-03-05T01:25:52.122Z,4.62
2019-03-05T01:28:23.679Z,4.65
2019-03-05T01:30:56.608Z,4.72
2019-03-05T01:33:28.696Z,4.74
2019-03-05T01:36:04.244Z,4.70
2019-03-05T01:38:37.117Z,4.70
2019-03-05T01:41:09.105Z,4.80
2019-03-05T01:43:40.271Z,4.74
2019-03-05T01:46:12.075Z,4.71
2019-03-05T01:48:43.373Z,4.76
2019-03-05T01:51:15.135Z,4.88
2019-03-05T01:53:46.786Z,4.88
2019-03-05T01:56:18.443Z,4.77
2019-03-05T01:58:49.997Z,4.77
2019-03-05T02:01:21.754Z,4.68
2019-03-05T02:03:53.414Z,4.74
2019-03-05T02:06:24.921Z,4.72
2019-03-05T02:08:56.249Z,4.70
2019-03-05T02:11:27.514Z,4.64
2019-03-05T02:13:58.839Z,4.75
2019-03-05T02:16:30.105Z,4.78
2019-03-05T02:19:27.619Z,4.81
2019-03-05T02:21:59.290Z,4.75
2019-03-05T02:24:50.337Z,4.82
2019-03-05T02:27:45.798Z,4.76
2019-03-05T02:30:35.492Z,4.70
2019-03-05T02:33:10.016Z,4.79
2019-03-05T02:35:52.719Z,4.76
2019-03-05T02:38:25.242Z,4.85
2019-03-05T02:41:02.186Z,4.85
2019-03-05T02:44:06.957Z,4.75
2019-03-05T02:46:47.666Z,4.73
2019-03-05T02:49:25.173Z,4.81
2019-03-05T02:52:17.641Z,4.83
2019-03-05T02:55:17.944Z,4.69
2019-03-05T02:57:48.280Z,4.72
2019-03-05T03:00:21.210Z,4.76
2019-03-05T03:02:54.259Z,4.77
2019-03-05T03:05:27.239Z,4.74
2019-03-05T03:07:57.925Z,4.76
2019-03-05T03:10:29.256Z,4.73
2019-03-05T03:13:00.546Z,4.76
2019-03-05T03:15:31.834Z,4.73
2019-03-05T03:18:03.120Z,4.74
2019-03-05T03:20:34.412Z,4.77
2019-03-05T03:23:06.239Z,4.68
2019-03-05T03:25:37.439Z,4.73
2019-03-05T03:28:08.602Z,4.67
2019-03-05T03:30:39.869Z,4.67
2019-03-05T03:33:11.238Z,4.64
2019-03-05T03:35:42.892Z,4.65
2019-03-05T03:38:14.551Z,4.69
2019-03-05T03:40:46.632Z,4.66
2019-03-05T03:43:18.281Z,4.66
2019-03-05T03:45:49.887Z,4.64
2019-03-05T03:48:21.787Z,4.70
2019-03-05T03:50:53.444Z,4.81
2019-03-05T03:53:25.022Z,4.72
2019-03-05T03:55:56.654Z,4.78
2019-03-05T03:58:28.414Z,4.75
2019-03-05T04:01:00.072Z,4.74
2019-03-05T04:03:31.834Z,4.68
2019-03-05T04:06:03.480Z,4.67
2019-03-05T04:08:34.938Z,4.70
2019-03-05T04:11:06.237Z,4.70
2019-03-05T04:13:37.420Z,4.64
2019-03-05T04:16:08.721Z,4.55
2019-03-05T04:18:40.204Z,4.75
2019-03-05T04:21:11.559Z,4.64
2019-03-05T04:23:43.869Z,4.55
2019-03-05T04:26:15.172Z,4.51
2019-03-05T04:28:46.537Z,4.51
2019-03-05T04:31:18.608Z,4.59
2019-03-05T04:33:49.905Z,4.66
2019-03-05T04:36:21.177Z,4.68
2019-03-05T04:38:52.400Z,4.54
2019-03-05T04:41:23.778Z,4.41
2019-03-05T04:43:55.099Z,4.63
2019-03-05T04:46:34.126Z,4.52
2019-03-05T04:49:16.172Z,4.56
2019-03-05T04:51:49.269Z,4.67
2019-03-05T04:54:21.891Z,4.66
2019-03-05T04:56:53.098Z,4.58
2019-03-05T04:59:24.360Z,4.60
2019-03-05T05:01:55.892Z,4.51
2019-03-05T05:04:27.552Z,4.41
2019-03-05T05:06:59.207Z,4.49
2019-03-05T05:09:30.857Z,4.52
2019-03-05T05:12:02.621Z,4.50
2019-03-05T05:14:34.267Z,4.47
2019-03-05T05:17:06.027Z,4.48
2019-03-05T05:19:37.586Z,4.45
2019-03-05T05:22:09.241Z,4.49
2019-03-05T05:24:40.851Z,4.53
2019-03-05T05:27:12.243Z,4.47
2019-03-05T05:29:43.901Z,4.68
2019-03-05T05:32:15.582Z,4.69
2019-03-05T05:34:46.786Z,4.60
2019-03-05T05:37:17.999Z,4.56
2019-03-05T05:40:21.457Z,4.62
2019-03-05T05:42:54.024Z,4.46
2019-03-05T05:45:38.016Z,4.68
2019-03-05T05:48:09.465Z,4.70
2019-03-05T05:50:40.989Z,4.58
2019-03-05T05:53:12.280Z,4.80
2019-03-05T05:55:43.647Z,4.88
2019-03-05T05:58:14.874Z,4.96
2019-03-05T06:00:47.707Z,5.10
2019-03-05T06:03:18.264Z,5.42
2019-03-05T06:05:49.763Z,5.60
2019-03-05T06:08:21.069Z,5.47
2019-03-05T06:10:53.097Z,5.63
2019-03-05T06:13:24.627Z,6.10
2019-03-05T06:15:55.912Z,5.88
2019-03-05T06:18:27.250Z,6.04
2019-03-05T06:20:58.504Z,6.88
2019-03-05T06:23:29.824Z,7.41
2019-03-05T06:26:01.392Z,7.88
2019-03-05T06:28:33.021Z,7.17
2019-03-05T06:31:04.171Z,7.12
2019-03-05T06:33:35.591Z,7.34
2019-03-05T06:36:06.927Z,7.33
2019-03-05T06:38:38.291Z,7.63
2019-03-05T06:41:10.589Z,8.13
2019-03-05T06:43:41.874Z,7.60
2019-03-05T06:46:13.453Z,9.73
2019-03-05T06:48:44.775Z,8.72
2019-03-05T06:51:17.160Z,8.88
2019-03-05T06:53:48.422Z,8.99
2019-03-05T06:56:19.678Z,9.65
2019-03-05T06:58:52.480Z,8.52
2019-03-05T07:01:25.804Z,9.54
2019-03-05T07:03:57.082Z,8.54
2019-03-05T07:06:49.356Z,8.47
2019-03-05T07:09:42.388Z,8.80
2019-03-05T07:12:19.775Z,8.33
2019-03-05T07:15:18.487Z,9.04
2019-03-05T07:18:01.867Z,9.16
2019-03-05T07:21:03.523Z,9.29
2019-03-05T07:23:47.068Z,8.72
2019-03-05T07:26:17.730Z,9.19
2019-03-05T07:28:48.921Z,9.74
2019-03-05T07:31:20.232Z,11.01
2019-03-05T07:33:53.081Z,10.93
2019-03-05T07:36:24.424Z,12.48
2019-03-05T07:38:55.775Z,11.95
2019-03-05T07:41:27.106Z,11.47
2019-03-05T07:43:58.695Z,11.51
2019-03-05T07:46:30.080Z,10.67
2019-03-05T07:49:01.430Z,11.32
2019-03-05T07:51:32.965Z,11.45
2019-03-05T07:54:04.566Z,10.04
2019-03-05T07:56:36.339Z,10.22
2019-03-05T07:59:08.106Z,10.41
2019-03-05T08:01:39.542Z,10.37
2019-03-05T08:04:11.132Z,9.75
2019-03-05T08:06:43.462Z,9.36
2019-03-05T08:09:35.096Z,9.60
2019-03-05T08:12:30.923Z,10.09
2019-03-05T08:15:08.501Z,9.70
2019-03-05T08:17:40.070Z,10.36
2019-03-05T08:20:13.045Z,10.12
2019-03-05T08:22:44.805Z,10.44
2019-03-05T08:25:16.770Z,9.53
2019-03-05T08:27:50.677Z,10.06
2019-03-05T08:30:22.229Z,10.57
2019-03-05T08:32:53.926Z,10.81
2019-03-05T08:35:25.359Z,10.79
2019-03-05T08:37:56.812Z,11.57
2019-03-05T08:40:28.472Z,10.80
2019-03-05T08:42:59.799Z,10.91
2019-03-05T08:45:31.717Z,11.16
2019-03-05T08:48:03.038Z,10.99
2019-03-05T08:50:34.388Z,11.36
2019-03-05T08:53:07.486Z,10.92
2019-03-05T08:55:38.411Z,11.24
2019-03-05T08:58:09.828Z,10.84
2019-03-05T09:00:41.512Z,11.48
2019-03-05T09:03:14.272Z,12.27
2019-03-05T09:05:46.344Z,12.60
2019-03-05T09:08:21.137Z,13.12
2019-03-05T09:10:53.273Z,13.53
2019-03-05T09:13:32.753Z,13.85
2019-03-05T09:15:57.975Z,13.07
2019-03-05T09:18:29.739Z,13.54
2019-03-05T09:21:01.612Z,12.69
2019-03-05T09:23:33.501Z,12.28
2019-03-05T09:26:04.813Z,13.09
2019-03-05T09:28:36.110Z,13.65
2019-03-05T09:31:07.663Z,13.88
2019-03-05T09:33:39.071Z,14.79
2019-03-05T09:36:10.819Z,13.42
2019-03-05T09:38:42.477Z,14.18
2019-03-05T09:41:14.119Z,12.75
2019-03-05T09:43:45.790Z,13.27
2019-03-05T09:46:19.588Z,12.39
2019-03-05T09:48:50.939Z,12.63
2019-03-05T09:51:22.802Z,12.52
2019-03-05T09:53:55.310Z,12.25
2019-03-05T09:56:28.261Z,12.19
2019-03-05T09:59:00.072Z,11.98
2019-03-05T10:01:32.714Z,12.25
2019-03-05T10:04:04.800Z,12.33
2019-03-05T10:06:36.531Z,13.09
2019-03-05T10:09:08.131Z,14.00
2019-03-05T10:11:40.592Z,14.26
2019-03-05T10:14:11.700Z,13.53
2019-03-05T10:16:43.351Z,13.90
2019-03-05T10:19:15.111Z,13.11
2019-03-05T10:21:46.810Z,14.22
2019-03-05T10:24:18.222Z,14.62
2019-03-05T10:26:50.280Z,13.38
2019-03-05T10:29:21.940Z,13.01
2019-03-05T10:31:53.774Z,13.32
2019-03-05T10:34:25.163Z,13.07
2019-03-05T10:36:56.810Z,13.59
2019-03-05T10:39:30.829Z,14.07
2019-03-05T10:42:00.973Z,13.85
2019-03-05T10:44:32.075Z,13.83
2019-03-05T10:47:03.726Z,13.71
2019-03-05T10:49:35.233Z,14.06
2019-03-05T10:52:10.026Z,13.67
2019-03-05T10:54:41.914Z,13.96
2019-03-05T10:57:13.549Z,13.95
2019-03-05T10:59:45.393Z,13.64
2019-03-05T11:02:17.351Z,13.81
2019-03-05T11:04:49.021Z,13.92
2019-03-05T11:07:20.366Z,14.13
2019-03-05T11:09:53.252Z,14.13
2019-03-05T11:12:25.113Z,13.50
2019-03-05T11:14:56.943Z,13.14
2019-03-05T11:17:28.431Z,13.19
2019-03-05T11:20:00.003Z,13.36
2019-03-05T11:22:31.668Z,12.93
2019-03-05T11:25:04.231Z,12.73
2019-03-05T11:27:37.268Z,12.80
2019-03-05T11:30:12.370Z,12.70
2019-03-05T11:32:44.201Z,12.65
2019-03-05T11:35:17.881Z,12.69
2019-03-05T11:37:49.566Z,12.89
2019-03-05T11:40:21.481Z,12.72
2019-03-05T11:42:53.066Z,12.78
2019-03-05T11:45:26.376Z,13.06
2019-03-05T11:47:57.714Z,12.62
2019-03-05T11:50:29.367Z,12.78
2019-03-05T11:53:00.718Z,13.39
2019-03-05T11:55:32.589Z,13.60
2019-03-05T11:58:04.288Z,13.77
2019-03-05T12:00:55.380Z,13.25
2019-03-05T12:03:27.007Z,12.98
2019-03-05T12:05:59.673Z,12.84
2019-03-05T12:08:31.344Z,12.81
2019-03-05T12:11:03.216Z,13.02
2019-03-05T12:13:35.296Z,13.13
2019-03-05T12:16:07.012Z,13.19
2019-03-05T12:18:39.094Z,13.15
2019-03-05T12:21:10.736Z,13.49
2019-03-05T12:23:46.674Z,13.42
2019-03-05T12:26:15.415Z,13.89
2019-03-05T12:28:47.174Z,13.78
2019-03-05T12:31:19.474Z,13.99
2019-03-05T12:33:50.866Z,13.30
2019-03-05T12:36:22.759Z,13.16
2019-03-05T12:38:54.347Z,12.97
2019-03-05T12:41:25.732Z,12.88
2019-03-05T12:43:57.520Z,13.04
2019-03-05T12:46:28.837Z,12.85
2019-03-05T12:49:00.486Z,12.76
2019-03-05T12:51:32.462Z,13.00
2019-03-05T12:54:04.026Z,13.00
2019-03-05T12:56:35.764Z,13.16
2019-03-05T12:59:07.419Z,12.97
2019-03-05T13:01:38.859Z,12.79
2019-03-05T13:04:10.549Z,12.57
2019-03-05T13:06:42.126Z,12.75
2019-03-05T13:09:17.724Z,12.70
2019-03-05T13:11:50.962Z,13.00
2019-03-05T13:14:22.636Z,13.07
2019-03-05T13:16:55.218Z,13.03
2019-03-05T13:19:26.628Z,13.28
2019-03-05T13:21:58.370Z,13.36
2019-03-05T13:24:30.144Z,13.48
2019-03-05T13:27:01.993Z,13.03
2019-03-05T13:29:33.665Z,13.00
2019-03-05T13:32:05.225Z,12.51
2019-03-05T13:34:36.615Z,12.44
2019-03-05T13:37:08.007Z,12.62
2019-03-05T13:39:39.486Z,12.67
2019-03-05T13:42:10.919Z,12.58
2019-03-05T13:44:43.677Z,12.54
2019-03-05T13:47:15.443Z,12.38
2019-03-05T13:49:58.860Z,12.51
2019-03-05T13:52:50.392Z,12.39
2019-03-05T13:55:31.067Z,12.52
2019-03-05T13:58:33.229Z,12.39
2019-03-05T14:01:06.149Z,12.42
2019-03-05T14:03:40.649Z,12.37
2019-03-05T14:06:33.491Z,12.51
2019-03-05T14:09:13.521Z,12.40
2019-03-05T14:11:47.108Z,12.50
2019-03-05T14:14:26.761Z,12.37
2019-03-05T14:17:15.186Z,12.30
2019-03-05T14:19:47.008Z,12.20
2019-03-05T14:22:18.794Z,12.18
2019-03-05T14:24:58.252Z,12.02
2019-03-05T14:27:23.822Z,12.09
2019-03-05T14:29:55.579Z,12.00
2019-03-05T14:32:27.352Z,12.04
2019-03-05T14:35:00.942Z,12.11
2019-03-05T14:37:32.894Z,11.98
2019-03-05T14:40:22.868Z,12.01
2019-03-05T14:42:39.599Z,12.07
2019-03-05T14:45:20.472Z,12.03
2019-03-05T14:47:55.136Z,12.01
2019-03-05T14:50:26.541Z,11.93
2019-03-05T14:52:58.413Z,11.90
2019-03-05T14:55:30.173Z,11.88
2019-03-05T14:58:01.816Z,11.84
2019-03-05T15:00:33.569Z,11.87
2019-03-05T15:03:05.390Z,11.80
2019-03-05T15:05:37.185Z,11.79
2019-03-05T15:08:08.628Z,11.81
2019-03-05T15:10:40.125Z,11.83
2019-03-05T15:13:17.095Z,11.84
2019-03-05T15:15:45.161Z,11.86
2019-03-05T15:18:17.132Z,11.86
2019-03-05T15:20:48.887Z,11.84
2019-03-05T15:23:20.661Z,11.86
2019-03-05T15:25:52.384Z,11.80
2019-03-05T15:28:24.237Z,11.78
2019-03-05T15:30:55.949Z,11.84
2019-03-05T15:33:27.687Z,11.80
2019-03-05T15:35:59.507Z,11.78
2019-03-05T15:38:31.816Z,11.75
2019-03-05T15:41:03.486Z,11.65
2019-03-05T15:43:35.169Z,11.70
2019-03-05T15:46:06.729Z,11.63
2019-03-05T15:48:38.234Z,11.62
2019-03-05T15:51:09.621Z,11.56
2019-03-05T15:53:41.160Z,11.66
2019-03-05T15:56:12.569Z,11.66
2019-03-05T15:58:43.861Z,11.58
2019-03-05T16:01:22.054Z,11.56
2019-03-05T16:03:48.558Z,11.57
2019-03-05T16:06:20.270Z,11.56
2019-03-05T16:08:52.071Z,11.52
2019-03-05T16:11:23.636Z,11.53
2019-03-05T16:13:56.512Z,11.52
2019-03-05T16:16:28.672Z,11.48
2019-03-05T16:19:00.536Z,11.45
2019-03-05T16:21:32.390Z,11.40
2019-03-05T16:24:04.351Z,11.41
2019-03-05T16:26:36.119Z,11.35
2019-03-05T16:29:10.834Z,11.39
2019-03-05T16:31:51.214Z,11.28
2019-03-05T16:34:24.908Z,11.22
2019-03-05T16:37:05.681Z,11.18
2019-03-05T16:39:41.016Z,11.01
2019-03-05T16:42:24.868Z,10.98
2019-03-05T16:45:14.754Z,10.83
2019-03-05T16:48:00.445Z,10.72
2019-03-05T16:50:42.936Z,10.57
2019-03-05T16:53:20.633Z,10.37
2019-03-05T16:56:00.080Z,10.24
2019-03-05T16:58:49.440Z,9.98
2019-03-05T17:01:28.465Z,9.85
2019-03-05T17:04:01.684Z,9.63
2019-03-05T17:06:51.961Z,9.57
2019-03-05T17:09:37.038Z,9.26
2019-03-05T17:12:08.687Z,9.08
2019-03-05T17:14:40.302Z,8.96
2019-03-05T17:17:11.919Z,8.87
2019-03-05T17:19:43.855Z,8.90
2019-03-05T17:22:15.407Z,8.81
2019-03-05T17:24:47.174Z,8.64
2019-03-05T17:27:18.814Z,8.61
2019-03-05T17:29:50.486Z,8.58
2019-03-05T17:32:23.072Z,8.47
2019-03-05T17:34:54.332Z,8.54
2019-03-05T17:37:25.616Z,8.55
2019-03-05T17:39:57.025Z,8.56
2019-03-05T17:42:28.328Z,8.41
2019-03-05T17:44:59.569Z,8.42
2019-03-05T17:47:31.251Z,8.36
2019-03-05T17:50:02.915Z,8.38
2019-03-05T17:52:34.984Z,8.36
2019-03-05T17:55:10.105Z,8.27
2019-03-05T17:57:42.381Z,8.33
2019-03-05T18:00:29.416Z,8.24
2019-03-05T18:03:01.272Z,8.32
2019-03-05T18:05:33.321Z,8.25
2019-03-05T18:08:04.982Z,8.24
2019-03-05T18:10:36.633Z,8.31
2019-03-05T18:13:08.291Z,8.37
2019-03-05T18:15:39.837Z,8.27
2019-03-05T18:18:11.397Z,8.40
2019-03-05T18:20:43.169Z,8.31
2019-03-05T18:23:14.922Z,8.35
2019-03-05T18:25:46.567Z,8.26
2019-03-05T18:28:18.122Z,8.22
2019-03-05T18:30:49.772Z,8.15
2019-03-05T18:33:22.560Z,8.10
2019-03-05T18:35:54.227Z,8.18
2019-03-05T18:38:26.079Z,8.13
2019-03-05T18:40:57.756Z,8.16
2019-03-05T18:43:29.401Z,8.08
2019-03-05T18:46:00.948Z,8.09
2019-03-05T18:48:32.805Z,7.99
2019-03-05T18:51:04.568Z,8.07
2019-03-05T18:53:35.806Z,7.99
2019-03-05T18:56:07.362Z,7.88
2019-03-05T18:58:39.022Z,7.81
2019-03-05T19:01:10.464Z,7.76
2019-03-05T19:03:41.800Z,7.72
2019-03-05T19:06:13.475Z,7.70
2019-03-05T19:08:45.129Z,7.61
2019-03-05T19:11:16.683Z,7.53
2019-03-05T19:13:49.977Z,7.53
2019-03-05T19:16:21.630Z,7.50
2019-03-05T19:18:53.218Z,7.45
2019-03-05T19:21:24.844Z,7.37
2019-03-05T19:23:56.912Z,7.44
2019-03-05T19:26:28.670Z,7.37
2019-03-05T19:29:00.223Z,7.40
2019-03-05T19:31:31.672Z,7.45
2019-03-05T19:34:03.427Z,7.21
2019-03-05T19:36:35.082Z,7.24
2019-03-05T19:39:06.954Z,7.25
2019-03-05T19:41:39.930Z,7.26
2019-03-05T19:44:11.490Z,7.25
2019-03-05T19:46:43.174Z,7.29
2019-03-05T19:49:15.104Z,7.34
2019-03-05T19:51:46.551Z,7.46
2019-03-05T19:54:19.137Z,7.40
2019-03-05T19:56:50.786Z,7.60
2019-03-05T19:59:22.571Z,7.56
2019-03-05T20:01:54.210Z,7.59
2019-03-05T20:04:27.601Z,7.59
2019-03-05T20:07:02.637Z,7.60
2019-03-05T20:09:34.289Z,7.55
2019-03-05T20:12:05.956Z,7.66
2019-03-05T20:14:37.603Z,7.56
2019-03-05T20:17:09.257Z,7.57
2019-03-05T20:19:40.819Z,7.63
2019-03-05T20:22:12.677Z,7.46
2019-03-05T20:24:44.465Z,7.58
2019-03-05T20:27:16.482Z,7.61
2019-03-05T20:29:47.845Z,7.48
2019-03-05T20:32:19.510Z,7.57
2019-03-05T20:34:51.054Z,7.40
2019-03-05T20:37:22.705Z,7.50
2019-03-05T20:39:54.372Z,7.51
2019-03-05T20:42:26.021Z,7.48
2019-03-05T20:44:57.581Z,7.36
2019-03-05T20:47:29.214Z,7.38
2019-03-05T20:50:00.483Z,7.46
2019-03-05T20:52:31.838Z,7.47
2019-03-05T20:55:04.204Z,7.54
2019-03-05T20:57:35.969Z,7.58
2019-03-05T21:00:10.692Z,7.50
2019-03-05T21:02:42.653Z,7.40
2019-03-05T21:05:14.313Z,7.34
2019-03-05T21:07:45.844Z,7.23
2019-03-05T21:10:18.236Z,7.28
2019-03-05T21:12:49.898Z,7.25
2019-03-05T21:15:21.544Z,7.08
2019-03-05T21:17:54.736Z,7.09
2019-03-05T21:20:25.971Z,7.01
2019-03-05T21:22:57.252Z,6.87
2019-03-05T21:25:29.613Z,6.76
2019-03-05T21:28:01.148Z,6.71
2019-03-05T21:30:32.812Z,6.63
2019-03-05T21:33:04.468Z,6.62
2019-03-05T21:35:36.126Z,6.58
2019-03-05T21:38:07.783Z,6.44
2019-03-05T21:40:39.435Z,6.45
2019-03-05T21:43:11.088Z,6.45
2019-03-05T21:45:48.370Z,6.31
2019-03-05T21:48:20.646Z,6.31
2019-03-05T21:50:52.410Z,6.29
2019-03-05T21:53:24.161Z,6.39
2019-03-05T21:55:55.828Z,6.31
2019-03-05T21:58:27.374Z,6.32
2019-03-05T22:00:59.131Z,6.39
2019-03-05T22:03:30.888Z,6.33
2019-03-05T22:06:02.442Z,6.30
2019-03-05T22:08:34.200Z,6.32
2019-03-05T22:11:05.858Z,6.32
2019-03-05T22:13:37.415Z,6.29
2019-03-05T22:16:08.976Z,6.28
2019-03-05T22:18:40.924Z,6.23
2019-03-05T22:21:12.176Z,6.21
2019-03-05T22:23:43.932Z,6.22
2019-03-05T22:26:15.587Z,6.24
2019-03-05T22:28:47.152Z,6.34
2019-03-05T22:31:18.697Z,6.28
2019-03-05T22:33:50.355Z,6.15
2019-03-05T22:36:22.212Z,6.25
2019-03-05T22:38:53.869Z,6.17
2019-03-05T22:41:27.072Z,6.25
2019-03-05T22:43:58.199Z,6.37
2019-03-05T22:46:29.958Z,6.19
2019-03-05T22:49:01.415Z,6.21
2019-03-05T22:51:33.065Z,6.20
2019-03-05T22:54:04.619Z,6.14
2019-03-05T22:56:36.276Z,6.18
2019-03-05T22:59:07.727Z,6.11
2019-03-05T23:01:39.487Z,6.07
2019-03-05T23:04:11.346Z,6.03
2019-03-05T23:06:43.309Z,5.98
2019-03-05T23:09:16.396Z,6.02
2019-03-05T23:11:48.054Z,5.97
2019-03-05T23:14:19.709Z,5.93
2019-03-05T23:16:51.570Z,5.99
2019-03-05T23:19:23.128Z,5.94
2019-03-05T23:21:54.883Z,5.90
2019-03-05T23:24:26.542Z,5.79
2019-03-05T23:27:00.760Z,5.84
2019-03-05T23:29:33.946Z,5.73
2019-03-05T23:32:05.809Z,5.86
2019-03-05T23:34:37.572Z,5.80
2019-03-05T23:37:09.242Z,5.90
2019-03-05T23:39:40.983Z,5.83
2019-03-05T23:42:12.643Z,5.75
2019-03-05T23:44:43.883Z,5.65
2019-03-05T23:47:15.432Z,5.61
2019-03-05T23:49:47.093Z,5.72
2019-03-05T23:52:19.059Z,5.77
2019-03-05T23:54:50.920Z,5.91
2019-03-05T23:57:22.466Z,5.76
2019-03-05T23:59:55.148Z,5.79
